Time;durP1;ratioP1;P1;durP2;ratioP2;P2;SDS_P1;SDS_P2;PMS_P1;PMS_P2;Temp;Humidity;BMP_temperature;BMP_pressure;BME280_temperature;BME280_humidity;BME280_pressure;Samples;Min_cycle;Max_cycle;Signal;HPM_P1;HPM_P2
2022/05/12 00:00:23;;;;;;;;;3.75;2.00;;;;;19.92;41.50;101197.53;5000302;28;46136;-47
2022/05/12 00:02:49;;;;;;;;;2.00;2.00;;;;;19.93;41.07;101197.47;4999032;28;46065;-47
2022/05/12 00:05:15;;;;;;;;;2.00;2.00;;;;;19.93;41.17;101199.28;5000599;28;45234;-48
2022/05/12 00:07:41;;;;;;;;;4.00;2.25;;;;;19.95;41.41;101200.06;5000221;28;45549;-49
2022/05/12 00:10:08;;;;;;;;;4.25;3.50;;;;;19.94;41.16;101195.69;5011355;28;46206;-46
2022/05/12 00:12:34;;;;;;;;;3.25;1.25;;;;;19.91;41.57;101204.69;5000609;28;45279;-48
2022/05/12 00:15:04;;;;;;;;;6.75;3.75;;;;;19.93;41.43;101209.94;5000439;28;45296;-47
2022/05/12 00:17:29;;;;;;;;;6.00;5.00;;;;;19.93;41.91;101212.59;5000000;28;45444;-48
2022/05/12 00:19:55;;;;;;;;;5.00;3.25;;;;;19.90;41.65;101207.41;4999881;28;46144;-47
2022/05/12 00:22:20;;;;;;;;;3.50;3.50;;;;;19.88;41.68;101206.63;5000077;28;45866;-45
2022/05/12 00:24:45;;;;;;;;;4.00;2.50;;;;;19.83;41.67;101205.97;4999928;28;45310;-50
2022/05/12 00:27:11;;;;;;;;;4.25;3.25;;;;;19.84;41.85;101213.91;4981976;28;45327;-49
2022/05/12 00:29:36;;;;;;;;;4.50;3.00;;;;;19.84;41.60;101218.38;4999987;28;46447;-48
2022/05/12 00:32:02;;;;;;;;;3.00;3.00;;;;;19.82;41.63;101213.06;4999921;28;45473;-47
2022/05/12 00:34:27;;;;;;;;;1.75;1.75;;;;;19.81;41.35;101217.53;5000589;28;45335;-50
2022/05/12 00:36:52;;;;;;;;;4.75;3.00;;;;;19.79;41.43;101215.88;4999732;28;45247;-48
2022/05/12 00:39:18;;;;;;;;;5.00;2.75;;;;;19.76;41.66;101213.31;4999654;28;45298;-46
2022/05/12 00:41:43;;;;;;;;;4.25;4.00;;;;;19.76;41.92;101224.88;4981959;28;45367;-49
2022/05/12 00:44:11;;;;;;;;;3.50;2.50;;;;;19.73;41.87;101227.66;5000139;28;45475;-47
2022/05/12 00:46:41;;;;;;;;;2.50;2.50;;;;;19.71;41.51;101234.00;4999762;28;45260;-49
2022/05/12 00:49:30;;;;;;;;;2.75;2.75;;;;;19.66;41.81;101228.91;4999646;28;46911;-48
2022/05/12 00:52:04;;;;;;;;;6.50;3.50;;;;;19.61;41.39;101231.75;4999764;28;45216;-46
2022/05/12 00:54:37;;;;;;;;;3.50;3.00;;;;;19.54;41.45;101229.44;4999426;28;45365;-48
2022/05/12 00:57:07;;;;;;;;;2.75;2.25;;;;;19.53;42.10;101238.38;4998358;28;45512;-49
2022/05/12 00:59:34;;;;;;;;;5.00;4.00;;;;;19.51;42.39;101240.22;4999399;28;45341;-48
2022/05/12 01:02:02;;;;;;;;;5.00;3.75;;;;;19.47;42.17;101245.69;4999659;28;45237;-49
2022/05/12 01:04:31;;;;;;;;;6.25;4.00;;;;;19.39;42.08;101250.47;4999474;28;45465;-46
2022/05/12 01:06:56;;;;;;;;;5.50;2.75;;;;;19.34;42.34;101252.47;4999567;28;45565;-48
2022/05/12 01:09:22;;;;;;;;;3.00;2.00;;;;;19.28;42.13;101250.06;5003910;28;45272;-47
2022/05/12 01:11:48;;;;;;;;;3.75;3.50;;;;;19.23;42.39;101254.72;5006519;28;45382;-47
2022/05/12 01:14:15;;;;;;;;;4.00;2.50;;;;;19.20;42.51;101266.38;4999462;28;45176;-49
2022/05/12 01:16:45;;;;;;;;;3.25;3.25;;;;;19.12;42.39;101258.72;4999288;28;45572;-46
2022/05/12 01:19:26;;;;;;;;;4.75;2.25;;;;;19.09;42.69;101264.16;4998900;28;46341;-48
2022/05/12 01:21:52;;;;;;;;;4.00;3.00;;;;;19.03;42.48;101260.91;4999302;28;45453;-50
2022/05/12 01:24:20;;;;;;;;;6.00;3.50;;;;;18.96;42.65;101260.28;4999254;28;45254;-45
2022/05/12 01:26:46;;;;;;;;;17.25;16.00;;;;;18.94;42.40;101270.13;4999190;28;45188;-48
2022/05/12 01:29:12;;;;;;;;;5.00;3.00;;;;;18.91;42.72;101267.59;4999138;28;47332;-50
2022/05/12 01:31:38;;;;;;;;;5.75;4.00;;;;;18.79;42.48;101247.63;4999338;28;45259;-49
2022/05/12 01:34:06;;;;;;;;;5.75;3.25;;;;;18.86;42.91;101273.06;4999469;28;45324;-49
2022/05/12 01:36:32;;;;;;;;;4.25;3.50;;;;;18.83;42.74;101276.72;4999246;28;45342;-50
2022/05/12 01:38:58;;;;;;;;;3.25;3.25;;;;;18.78;42.90;101275.16;4982246;28;47026;-51
2022/05/12 01:41:24;;;;;;;;;7.50;3.75;;;;;18.72;42.99;101270.97;5002366;28;45350;-50
2022/05/12 01:43:50;;;;;;;;;3.25;3.25;;;;;18.69;42.91;101276.41;5002784;28;45262;-47
2022/05/12 01:46:15;;;;;;;;;5.25;4.00;;;;;18.66;42.89;101276.53;5002553;28;45559;-49
2022/05/12 01:48:41;;;;;;;;;8.00;3.00;;;;;18.61;43.05;101271.38;5001122;28;46807;-47
2022/05/12 01:51:06;;;;;;;;;4.75;4.75;;;;;18.60;42.79;101282.09;5001146;28;45737;-50
2022/05/12 01:53:32;;;;;;;;;4.00;2.75;;;;;18.60;42.89;101284.75;5002612;28;45209;-50
2022/05/12 01:55:58;;;;;;;;;6.00;4.00;;;;;18.60;42.75;101292.75;5002022;28;45178;-50
2022/05/12 01:58:25;;;;;;;;;5.25;4.00;;;;;18.59;42.84;101293.66;5002409;28;45346;-48
2022/05/12 02:00:51;;;;;;;;;5.00;5.00;;;;;18.61;43.13;101297.16;5002178;28;45322;-47
2022/05/12 02:03:16;;;;;;;;;5.75;4.75;;;;;18.58;42.84;101290.16;5002685;28;45312;-48
2022/05/12 02:05:42;;;;;;;;;6.25;4.75;;;;;18.62;42.71;101297.09;5002178;28;45609;-48
2022/05/12 02:08:09;;;;;;;;;6.00;4.25;;;;;18.62;43.11;101299.75;4984604;28;46906;-47
2022/05/12 02:10:38;;;;;;;;;4.75;3.50;;;;;18.65;43.03;101304.06;5013524;28;45578;-51
2022/05/12 02:13:08;;;;;;;;;6.75;5.00;;;;;18.63;42.90;101308.63;5002298;28;45308;-47
2022/05/12 02:15:35;;;;;;;;;6.75;5.25;;;;;18.63;42.87;101313.94;4984505;28;45413;-49
2022/05/12 02:18:00;;;;;;;;;4.25;4.00;;;;;18.61;42.76;101318.44;5001900;28;45231;-47
2022/05/12 02:20:26;;;;;;;;;5.75;4.25;;;;;18.59;43.04;101313.19;5000630;28;45970;-48
2022/05/12 02:22:51;;;;;;;;;6.00;5.00;;;;;18.58;43.07;101321.19;5002319;28;45508;-46
2022/05/12 02:25:17;;;;;;;;;5.50;4.50;;;;;18.58;42.90;101324.75;5001624;28;45449;-48
2022/05/12 02:27:45;;;;;;;;;6.00;4.00;;;;;18.56;42.98;101328.41;5001779;28;45257;-49
2022/05/12 02:30:14;;;;;;;;;5.25;5.00;;;;;18.55;43.06;101335.50;5001730;28;45406;-49
2022/05/12 02:32:39;;;;;;;;;5.25;5.00;;;;;18.50;43.14;101334.81;5001760;28;45308;-50
2022/05/12 02:35:06;;;;;;;;;6.75;4.00;;;;;18.48;43.21;101332.22;5001555;28;45291;-48
2022/05/12 02:37:32;;;;;;;;;5.25;4.75;;;;;18.47;43.04;101335.78;5001737;28;48181;-47
2022/05/12 02:39:57;;;;;;;;;7.00;5.00;;;;;18.45;42.93;101339.44;5001008;28;45378;-46
2022/05/12 02:42:23;;;;;;;;;6.50;4.00;;;;;18.41;43.20;101345.81;5001942;28;45228;-48
2022/05/12 02:44:48;;;;;;;;;5.50;5.25;;;;;18.36;43.26;101343.31;5001722;28;45432;-49
2022/05/12 02:47:14;;;;;;;;;6.25;5.50;;;;;18.34;43.20;101350.50;5001704;28;46097;-49
2022/05/12 02:49:41;;;;;;;;;6.00;4.75;;;;;18.29;43.14;101336.50;5001323;28;45488;-50
2022/05/12 02:52:07;;;;;;;;;2.75;2.75;;;;;18.28;43.01;101345.41;5001683;28;45320;-50
2022/05/12 02:54:33;;;;;;;;;3.00;3.00;;;;;18.29;43.31;101344.50;5000774;28;45456;-51
2022/05/12 02:56:58;;;;;;;;;6.25;3.00;;;;;18.28;42.84;101356.06;5001433;28;46209;-49
2022/05/12 02:59:24;;;;;;;;;1.50;1.50;;;;;18.25;42.95;101353.47;5001141;28;45339;-47
2022/05/12 03:01:49;;;;;;;;;4.75;3.00;;;;;18.20;43.09;101351.00;5001677;28;45240;-48
2022/05/12 03:04:15;;;;;;;;;1.50;1.25;;;;;18.17;42.73;101361.75;5001312;28;45386;-48
2022/05/12 03:06:40;;;;;;;;;1.75;1.00;;;;;18.13;42.81;101358.31;5001332;28;45244;-47
2022/05/12 03:09:06;;;;;;;;;2.00;1.00;;;;;18.11;42.86;101370.84;5003793;28;45192;-51
2022/05/12 03:11:32;;;;;;;;;1.00;1.00;;;;;18.07;42.57;101368.31;5010303;28;45402;-49
2022/05/12 03:13:59;;;;;;;;;3.75;2.75;;;;;18.02;42.53;101373.81;5001284;28;45173;-46
2022/05/12 03:16:25;;;;;;;;;1.75;1.75;;;;;17.99;42.53;101373.91;5001141;28;46872;-48
2022/05/12 03:18:51;;;;;;;;;1.00;1.00;;;;;17.96;42.34;101366.03;5000716;28;45467;-49
2022/05/12 03:21:18;;;;;;;;;1.25;1.25;;;;;17.95;42.40;101374.94;5001286;28;45420;-47
2022/05/12 03:23:44;;;;;;;;;1.00;1.00;;;;;17.92;42.33;101383.00;5001036;28;45327;-49
2022/05/12 03:26:10;;;;;;;;;1.00;1.00;;;;;17.87;42.11;101377.81;5000584;28;46657;-47
2022/05/12 03:28:37;;;;;;;;;2.00;2.00;;;;;17.86;42.03;101374.31;5000782;28;45311;-51
2022/05/12 03:31:03;;;;;;;;;2.00;2.00;;;;;17.88;42.31;101374.25;5001197;28;45317;-50
2022/05/12 03:33:28;;;;;;;;;1.00;1.00;;;;;17.87;42.22;101383.16;5000752;28;45517;-49
2022/05/12 03:35:53;;;;;;;;;2.00;2.00;;;;;17.87;42.10;101388.47;4999691;28;47091;-51
2022/05/12 03:38:20;;;;;;;;;4.50;2.50;;;;;17.85;42.16;101380.53;5000841;28;45219;-48
2022/05/12 03:40:46;;;;;;;;;2.25;2.00;;;;;17.85;42.27;101383.22;5000794;28;45421;-49
2022/05/12 03:44:46;;;;;;;;;3.50;3.00;;;;;17.82;42.41;101372.69;4999258;28;45385;-49
2022/05/12 03:45:58;;;;;;;;;2.25;2.25;;;;;17.84;42.14;101375.28;5000471;28;45555;-51
2022/05/12 03:48:23;;;;;;;;;2.00;1.00;;;;;17.85;42.31;101379.69;5000590;28;45376;-48
2022/05/12 03:50:48;;;;;;;;;3.75;3.25;;;;;17.84;42.21;101375.28;5000659;28;45334;-51
2022/05/12 03:53:14;;;;;;;;;3.00;1.00;;;;;17.85;42.30;101382.34;4982899;28;45465;-47
2022/05/12 03:55:39;;;;;;;;;3.75;2.00;;;;;17.85;42.09;101380.53;5000046;28;45917;-47
2022/05/12 03:58:05;;;;;;;;;4.25;4.25;;;;;17.85;42.23;101374.38;5000636;28;45467;-49
2022/05/12 04:00:31;;;;;;;;;4.00;2.00;;;;;17.74;42.27;101361.44;5000694;28;45241;-49
2022/05/12 04:02:57;;;;;;;;;5.25;2.75;;;;;17.85;42.36;101374.38;4999957;28;46419;-46
2022/05/12 04:05:22;;;;;;;;;1.50;1.50;;;;;17.84;42.25;101375.28;5000367;28;45343;-49
2022/05/12 04:07:49;;;;;;;;;3.75;2.25;;;;;17.81;42.23;101378.94;4999124;28;45424;-47
2022/05/12 04:10:15;;;;;;;;;2.75;2.50;;;;;17.81;42.40;101384.25;5011935;28;45380;-47
2022/05/12 04:12:41;;;;;;;;;4.00;2.00;;;;;17.77;42.35;101379.94;5000445;28;45331;-46
2022/05/12 04:15:08;;;;;;;;;3.75;2.75;;;;;17.75;42.33;101380.91;4999925;28;46907;-47
2022/05/12 04:17:34;;;;;;;;;2.00;1.50;;;;;17.77;42.42;101387.03;5000250;28;45342;-48
2022/05/12 04:20:04;;;;;;;;;3.00;2.00;;;;;17.75;42.38;101386.22;4999842;28;45349;-50
2022/05/12 04:22:30;;;;;;;;;1.25;1.25;;;;;17.74;42.24;101396.00;4982788;28;45481;-49
2022/05/12 04:24:55;;;;;;;;;3.25;3.25;;;;;17.71;42.38;101407.59;4999606;28;46270;-48
2022/05/12 04:27:21;;;;;;;;;2.75;1.00;;;;;17.70;42.53;101402.34;5000291;28;45317;-46
2022/05/12 04:29:46;;;;;;;;;2.00;2.00;;;;;17.64;42.51;101402.53;5000135;28;45319;-48
2022/05/12 04:32:12;;;;;;;;;3.25;2.00;;;;;17.65;42.28;101407.81;5000135;28;45492;-50
2022/05/12 04:37:30;;;;;;;;;1.75;1.75;;;;;17.59;42.53;101418.63;5000038;28;45404;-50
2022/05/12 04:40:04;;;;;;;;;1.50;1.00;;;;;17.55;42.52;101407.22;4999477;28;45390;-48
2022/05/12 04:42:29;;;;;;;;;3.25;3.25;;;;;17.52;42.84;101412.66;5000090;28;45477;-48
2022/05/12 04:44:55;;;;;;;;;4.50;3.25;;;;;17.50;42.67;101418.94;4999874;28;45244;-46
2022/05/12 04:47:21;;;;;;;;;2.00;2.00;;;;;17.47;42.50;101419.03;4999909;28;45330;-48
2022/05/12 04:49:46;;;;;;;;;6.75;2.75;;;;;17.42;42.58;101419.19;4999859;28;45358;-51
2022/05/12 04:52:12;;;;;;;;;4.00;4.00;;;;;17.44;42.75;101425.31;5000033;28;45287;-51
2022/05/12 04:54:38;;;;;;;;;1.75;1.75;;;;;17.41;42.54;101425.41;4999183;28;46219;-49
2022/05/12 04:57:04;;;;;;;;;3.50;3.50;;;;;17.41;42.70;101429.84;4999854;28;45338;-45
2022/05/12 04:59:29;;;;;;;;;3.00;2.00;;;;;17.36;42.65;101430.00;4982177;28;45421;-50
2022/05/12 05:01:54;;;;;;;;;2.25;2.00;;;;;17.35;42.50;101437.09;4999729;28;45477;-49
2022/05/12 05:04:20;;;;;;;;;1.25;1.25;;;;;17.34;42.51;101431.84;4999636;28;45391;-48
2022/05/12 05:06:46;;;;;;;;;2.00;1.50;;;;;17.37;42.63;101432.63;4999780;28;45366;-51
2022/05/12 05:09:11;;;;;;;;;2.25;2.00;;;;;17.35;42.69;101429.13;5003011;28;45353;-47
2022/05/12 05:11:37;;;;;;;;;2.75;2.50;;;;;17.35;42.69;101433.59;5008197;28;45347;-51
2022/05/12 05:14:03;;;;;;;;;2.75;2.50;;;;;17.33;42.83;101440.72;4999992;28;46321;-49
2022/05/12 05:16:29;;;;;;;;;5.00;3.25;;;;;17.30;42.65;101430.22;5003036;28;45407;-48
2022/05/12 05:18:54;;;;;;;;;3.00;2.25;;;;;17.30;42.85;101436.38;5002903;28;45203;-49
2022/05/12 05:21:20;;;;;;;;;4.00;1.75;;;;;17.27;42.95;101440.91;5002982;28;45396;-48
2022/05/12 05:23:45;;;;;;;;;3.25;2.25;;;;;17.27;42.68;101444.47;5002778;28;45412;-48
2022/05/12 05:26:11;;;;;;;;;2.50;2.00;;;;;17.22;42.64;101441.94;5002563;28;45369;-50
2022/05/12 05:28:37;;;;;;;;;1.50;1.50;;;;;17.22;43.07;101447.25;5002970;28;45489;-48
2022/05/12 05:31:04;;;;;;;;;3.75;2.25;;;;;17.22;42.59;101459.66;5002860;28;45465;-48
2022/05/12 05:33:30;;;;;;;;;6.50;2.00;;;;;17.20;43.07;101467.66;5002587;28;46159;-45
2022/05/12 05:35:57;;;;;;;;;4.00;3.00;;;;;17.19;42.86;101463.28;5001325;28;45309;-50
2022/05/12 05:38:22;;;;;;;;;3.75;2.00;;;;;17.19;42.92;101473.03;5002763;28;45168;-47
2022/05/12 05:40:48;;;;;;;;;4.00;3.00;;;;;17.17;42.92;101475.72;5002293;28;45334;-49
2022/05/12 05:43:13;;;;;;;;;5.25;5.25;;;;;17.16;42.92;101478.44;5002491;28;45252;-48
2022/05/12 05:45:39;;;;;;;;;5.00;3.75;;;;;17.12;42.83;101488.28;5002697;28;45299;-50
2022/05/12 05:48:06;;;;;;;;;3.00;3.00;;;;;17.09;43.34;101490.16;5002503;28;45362;-49
2022/05/12 05:53:24;;;;;;;;;3.75;3.75;;;;;17.05;43.09;101495.53;4987798;28;45491;-49
2022/05/12 05:55:54;;;;;;;;;2.00;2.00;;;;;17.06;42.96;101505.25;4985146;28;45312;-48
2022/05/12 05:58:20;;;;;;;;;4.50;1.75;;;;;17.05;42.85;101511.47;5002585;28;45404;-48
2022/05/12 06:00:46;;;;;;;;;4.00;2.75;;;;;17.05;43.32;101506.16;5002250;28;45543;-48
2022/05/12 06:03:12;;;;;;;;;2.25;2.00;;;;;17.04;42.97;101516.81;5002398;28;45278;-50
2022/05/12 06:05:37;;;;;;;;;4.75;4.75;;;;;17.04;43.08;101514.16;5002225;28;45221;-46
2022/05/12 06:08:04;;;;;;;;;5.50;4.00;;;;;17.03;43.12;101520.38;5002422;28;45203;-50
2022/05/12 06:10:30;;;;;;;;;9.00;3.25;;;;;17.01;43.29;101535.50;5013773;28;45508;-50
2022/05/12 06:12:56;;;;;;;;;6.25;4.00;;;;;17.00;43.11;101541.75;5002050;28;45521;-51
2022/05/12 06:15:23;;;;;;;;;2.25;2.00;;;;;16.98;43.23;101540.91;5001913;28;45386;-49
2022/05/12 06:17:48;;;;;;;;;2.75;2.00;;;;;16.97;43.08;101544.50;5002123;28;45412;-50
2022/05/12 06:20:14;;;;;;;;;7.00;4.00;;;;;16.95;43.15;101541.84;5001582;28;45428;-50
2022/05/12 06:22:39;;;;;;;;;6.75;4.00;;;;;16.97;43.46;101545.34;5002104;28;45322;-50
2022/05/12 06:25:07;;;;;;;;;3.25;3.25;;;;;16.99;43.12;101543.53;5000953;28;45336;-48
2022/05/12 06:27:34;;;;;;;;;5.00;4.75;;;;;16.99;42.94;101546.19;5000733;28;45296;-50
2022/05/12 06:29:59;;;;;;;;;2.00;2.00;;;;;17.00;43.73;101539.06;5001768;28;45326;-50
2022/05/12 06:32:26;;;;;;;;;4.00;3.00;;;;;17.02;43.19;101546.09;5001675;28;45235;-50
2022/05/12 06:34:53;;;;;;;;;6.50;5.75;;;;;17.03;43.21;101544.28;5001670;28;45390;-49
2022/05/12 06:37:19;;;;;;;;;5.75;3.25;;;;;17.01;43.18;101543.47;5000654;28;45357;-49
2022/05/12 06:39:45;;;;;;;;;4.25;3.00;;;;;17.08;42.99;101552.13;4983736;28;45267;-46
2022/05/12 06:42:12;;;;;;;;;4.00;3.00;;;;;17.11;43.00;101558.22;5001645;28;45963;-47
2022/05/12 06:44:38;;;;;;;;;7.25;4.00;;;;;17.15;42.97;101556.38;5000385;28;46075;-49
2022/05/12 06:47:07;;;;;;;;;4.75;2.75;;;;;17.19;42.95;101560.66;5001651;28;45251;-49
2022/05/12 06:49:32;;;;;;;;;2.00;2.00;;;;;17.21;42.75;101553.53;5001773;28;45294;-50
2022/05/12 06:51:57;;;;;;;;;5.50;4.00;;;;;17.27;42.81;101555.13;5001471;28;46060;-45
2022/05/12 06:54:22;;;;;;;;;8.75;6.00;;;;;17.30;42.76;101549.72;5001105;28;45328;-49
2022/05/12 06:56:48;;;;;;;;;3.25;3.25;;;;;17.36;42.91;101553.06;5001814;28;45259;-50
2022/05/12 06:59:13;;;;;;;;;4.75;3.00;;;;;17.44;42.82;101557.28;5001499;28;45303;-47
2022/05/12 07:01:39;;;;;;;;;5.00;3.25;;;;;17.45;43.01;101554.59;5000097;28;45355;-49
2022/05/12 07:04:04;;;;;;;;;2.25;2.25;;;;;17.52;42.78;101548.19;5001268;28;45242;-50
2022/05/12 07:06:29;;;;;;;;;4.75;2.50;;;;;17.58;42.75;101551.56;5000154;28;45310;-46
2022/05/12 07:08:56;;;;;;;;;4.00;2.50;;;;;17.61;43.00;101555.00;5002524;28;45282;-48
2022/05/12 07:11:21;;;;;;;;;3.75;3.75;;;;;17.64;42.90;101557.53;5011202;28;45227;-49
2022/05/12 07:13:47;;;;;;;;;4.50;3.00;;;;;17.69;42.92;101549.44;5000973;28;45152;-48
2022/05/12 07:16:12;;;;;;;;;4.50;3.25;;;;;17.71;42.88;101552.94;5001270;28;45193;-47
2022/05/12 07:18:38;;;;;;;;;9.00;5.00;;;;;17.73;42.79;101556.38;4999529;28;45466;-46
2022/05/12 07:26:39;;;;;;;;;4.50;4.00;;;;;17.85;42.94;101556.00;4986219;28;45248;-50
2022/05/12 07:29:11;;;;;;;;;6.00;3.50;;;;;17.87;43.04;101558.59;5000761;28;45343;-48
2022/05/12 07:31:37;;;;;;;;;7.50;5.00;;;;;17.90;43.07;101550.56;5000646;28;45432;-49
2022/05/12 07:34:03;;;;;;;;;5.25;4.25;;;;;17.89;42.98;101537.31;4983014;28;45471;-48
2022/05/12 07:36:34;;;;;;;;;8.75;4.25;;;;;17.97;43.05;101551.25;4999912;28;45371;-49
2022/05/12 07:39:00;;;;;;;;;5.50;4.00;;;;;17.98;42.86;101543.22;5000544;28;45440;-50
2022/05/12 07:41:26;;;;;;;;;9.00;5.00;;;;;18.03;42.98;101548.38;5000536;28;45481;-50
2022/05/12 07:43:52;;;;;;;;;4.25;4.25;;;;;18.06;43.06;101550.94;4999430;28;45396;-50
2022/05/12 07:46:21;;;;;;;;;5.50;4.75;;;;;18.08;42.96;101546.44;5000649;28;45319;-51
2022/05/12 07:48:47;;;;;;;;;6.50;4.25;;;;;18.08;43.09;101546.44;5000727;28;45288;-51
2022/05/12 07:51:12;;;;;;;;;4.00;4.00;;;;;18.12;42.84;101544.56;5000317;28;45188;-50
2022/05/12 07:53:38;;;;;;;;;7.00;5.00;;;;;18.13;42.63;101552.47;5000667;28;45265;-47
2022/05/12 07:56:04;;;;;;;;;3.75;3.75;;;;;18.15;42.55;101563.06;5000106;28;45239;-49
2022/05/12 07:58:31;;;;;;;;;2.00;2.00;;;;;18.15;42.51;101563.06;5000628;28;45491;-48
2022/05/12 08:00:57;;;;;;;;;6.25;2.75;;;;;18.16;42.54;101560.38;5000276;28;45426;-50
2022/05/12 08:03:24;;;;;;;;;2.25;2.25;;;;;18.17;42.42;101562.09;4982806;28;45469;-48
2022/05/12 08:05:49;;;;;;;;;1.75;1.00;;;;;18.18;42.41;101562.97;5000414;28;45267;-46
2022/05/12 08:08:16;;;;;;;;;2.50;2.00;;;;;18.18;42.21;101558.50;4982718;28;45559;-50
2022/05/12 08:10:41;;;;;;;;;3.00;2.25;;;;;18.19;42.30;101565.56;5011461;28;46055;-48
2022/05/12 08:13:14;;;;;;;;;2.00;2.00;;;;;18.21;42.21;101568.19;5000287;28;45414;-47
2022/05/12 08:15:41;;;;;;;;;5.25;4.00;;;;;18.26;42.02;101565.38;5000248;28;45456;-49
2022/05/12 08:18:08;;;;;;;;;5.00;2.75;;;;;18.28;42.23;101563.53;5000275;28;45239;-52
2022/05/12 08:20:34;;;;;;;;;4.25;2.75;;;;;18.32;42.06;101565.19;4999888;28;46859;-51
2022/05/12 08:22:59;;;;;;;;;5.00;2.75;;;;;18.39;42.01;101572.03;5000542;28;45223;-49
2022/05/12 08:25:24;;;;;;;;;4.25;3.00;;;;;18.43;41.82;101579.00;4999668;28;45468;-49
2022/05/12 08:27:50;;;;;;;;;3.00;3.00;;;;;18.47;41.83;101575.28;4998751;28;45394;-49
2022/05/12 08:30:17;;;;;;;;;3.25;2.00;;;;;18.50;42.04;101576.97;4999849;28;45582;-48
2022/05/12 08:32:43;;;;;;;;;5.50;4.00;;;;;18.54;42.00;101583.06;5000009;28;45342;-51
2022/05/12 08:35:08;;;;;;;;;4.50;3.75;;;;;18.58;42.05;101590.00;4999744;28;45452;-46
2022/05/12 08:37:33;;;;;;;;;7.50;4.50;;;;;18.63;41.79;101585.44;5000076;28;45321;-50
2022/05/12 08:39:59;;;;;;;;;3.50;1.50;;;;;18.65;41.69;101584.44;4997901;28;46077;-47
2022/05/12 08:42:33;;;;;;;;;5.50;3.50;;;;;18.66;41.50;101580.00;5000179;28;45367;-52
2022/05/12 08:45:05;;;;;;;;;2.75;2.75;;;;;18.70;41.74;101584.28;4999912;28;45258;-52
2022/05/12 08:47:35;;;;;;;;;4.75;2.50;;;;;18.74;41.46;101577.06;4999605;28;45431;-46
2022/05/12 08:50:01;;;;;;;;;3.00;3.00;;;;;18.79;41.51;101580.41;4999727;28;47143;-49
2022/05/12 08:52:30;;;;;;;;;3.00;3.00;;;;;18.84;41.46;101574.03;4982051;28;45289;-49
2022/05/12 08:54:57;;;;;;;;;4.25;2.50;;;;;18.89;41.64;101570.31;4999426;28;45405;-46
2022/05/12 08:57:25;;;;;;;;;3.75;3.50;;;;;18.92;41.64;101563.13;4999770;28;45302;-48
2022/05/12 08:59:51;;;;;;;;;3.00;3.00;;;;;18.98;41.47;101564.69;4999498;28;46053;-48
2022/05/12 09:02:41;;;;;;;;;7.50;3.00;;;;;19.04;41.35;101569.78;4999573;28;45188;-49
2022/05/12 09:05:12;;;;;;;;;4.00;3.00;;;;;19.12;41.38;101577.50;4983557;28;45504;-52
2022/05/12 09:07:40;;;;;;;;;3.00;2.75;;;;;19.19;41.21;101572.81;4999571;28;45515;-47
2022/05/12 09:10:12;;;;;;;;;5.75;5.00;;;;;19.24;41.57;101568.19;5009931;28;46391;-47
2022/05/12 09:12:46;;;;;;;;;7.25;3.75;;;;;19.28;41.42;101565.34;4986351;28;45255;-52
2022/05/12 09:15:20;;;;;;;;;2.50;1.75;;;;;19.35;41.38;101560.66;4999465;28;45276;-48
2022/05/12 09:17:57;;;;;;;;;2.00;2.00;;;;;19.40;41.45;101569.34;4999312;28;45626;-47
2022/05/12 09:20:23;;;;;;;;;1.75;1.75;;;;;19.44;40.73;101557.63;4999288;28;46223;-47
2022/05/12 09:22:49;;;;;;;;;4.75;3.25;;;;;19.49;40.67;101568.13;4999550;28;45307;-48
2022/05/12 09:25:32;;;;;;;;;2.00;2.00;;;;;19.49;40.82;101571.63;4999103;28;45297;-50
2022/05/12 09:27:58;;;;;;;;;3.50;1.00;;;;;19.56;40.97;101571.41;4999355;28;45445;-49
2022/05/12 09:30:37;;;;;;;;;2.25;2.00;;;;;19.58;40.74;101573.09;4999198;28;45252;-50
2022/05/12 09:33:03;;;;;;;;;2.50;1.75;;;;;19.65;40.67;101573.72;4999228;28;45438;-51
2022/05/12 09:35:31;;;;;;;;;2.00;2.00;;;;;19.71;40.71;101573.50;4999329;28;45502;-49
2022/05/12 09:37:57;;;;;;;;;3.75;3.00;;;;;19.78;40.73;101566.97;4981479;28;45814;-49
2022/05/12 09:40:22;;;;;;;;;2.50;1.50;;;;;19.85;40.37;101564.97;4998838;28;46164;-48
2022/05/12 09:42:54;;;;;;;;;2.50;2.00;;;;;19.92;40.56;101563.81;4999094;28;46021;-49
2022/05/12 09:45:29;;;;;;;;;3.00;2.00;;;;;19.98;40.61;101571.53;4999338;28;45349;-48
2022/05/12 09:48:26;;;;;;;;;6.25;3.25;;;;;20.07;40.50;101569.44;4998852;28;45327;-50
2022/05/12 09:50:53;;;;;;;;;3.50;2.75;;;;;20.13;40.10;101567.38;4999090;28;46439;-50
2022/05/12 09:53:30;;;;;;;;;5.75;2.00;;;;;20.22;40.09;101557.25;4999094;28;45349;-48
2022/05/12 09:56:09;;;;;;;;;3.25;2.25;;;;;20.28;40.46;101559.66;4980906;28;45457;-50
2022/05/12 09:58:37;;;;;;;;;3.75;2.50;;;;;20.33;39.79;101563.00;4998813;28;45503;-51
2022/05/12 10:01:15;;;;;;;;;3.25;2.00;;;;;20.37;39.65;101564.59;5000729;28;46359;-50
2022/05/12 10:09:29;;;;;;;;;7.00;5.00;;;;;20.50;40.13;101559.59;5006205;28;45606;-50
2022/05/12 10:12:22;;;;;;;;;2.00;2.00;;;;;20.50;39.74;101558.75;5007812;28;47331;-47
2022/05/12 10:15:07;;;;;;;;;3.50;2.75;;;;;20.52;39.94;101546.22;5001974;28;45323;-48
2022/05/12 10:17:43;;;;;;;;;1.50;1.50;;;;;20.54;39.92;101544.31;5002084;28;45230;-50
2022/05/12 10:20:18;;;;;;;;;3.00;3.00;;;;;20.61;39.35;101552.00;5000439;28;45449;-51
2022/05/12 10:23:07;;;;;;;;;3.00;2.50;;;;;20.73;39.32;101547.97;5001856;28;46071;-50
2022/05/12 10:25:57;;;;;;;;;8.75;7.50;;;;;20.79;39.63;101538.81;5001354;28;45317;-50
2022/05/12 10:28:48;;;;;;;;;6.75;2.50;;;;;20.83;39.28;101540.44;5001929;28;45342;-48
2022/05/12 10:31:23;;;;;;;;;2.75;2.00;;;;;20.87;39.36;101538.50;5001882;28;45279;-46
2022/05/12 10:33:49;;;;;;;;;6.50;2.00;;;;;20.91;39.59;101543.59;5001620;28;46949;-47
2022/05/12 10:36:27;;;;;;;;;9.50;8.75;;;;;20.98;39.28;101546.88;5001445;28;45304;-48
2022/05/12 10:39:09;;;;;;;;;5.75;3.25;;;;;21.04;39.21;101545.72;5000170;28;45357;-49
2022/05/12 10:41:40;;;;;;;;;3.00;2.50;;;;;21.16;39.35;101546.97;5000143;28;45525;-47
2022/05/12 10:44:43;;;;;;;;;6.00;3.75;;;;;21.28;39.38;101541.03;5001811;28;45404;-50
2022/05/12 10:47:20;;;;;;;;;1.25;1.00;;;;;21.44;39.11;101533.19;5000239;28;45200;-48
2022/05/12 10:50:22;;;;;;;;;2.00;2.00;;;;;21.63;39.47;101533.19;5001509;28;45493;-46
2022/05/12 10:53:27;;;;;;;;;4.00;3.00;;;;;21.89;39.53;101526.56;4984244;28;45577;-49
2022/05/12 10:56:08;;;;;;;;;5.25;3.00;;;;;22.12;39.38;101529.91;5000775;28;45321;-50
2022/05/12 10:58:51;;;;;;;;;3.00;3.00;;;;;22.27;39.21;101530.94;5001283;28;45382;-51
2022/05/12 11:01:24;;;;;;;;;4.00;3.00;;;;;22.42;38.86;101528.47;5000498;28;45450;-50
2022/05/12 11:04:19;;;;;;;;;2.50;2.50;;;;;22.52;39.36;101525.22;5001211;28;45513;-49
2022/05/12 11:07:10;;;;;;;;;4.25;3.00;;;;;22.68;38.73;101527.97;4987977;28;45405;-49
2022/05/12 11:09:48;;;;;;;;;1.75;1.75;;;;;22.79;38.55;101523.84;5006235;28;45279;-48
2022/05/12 11:12:29;;;;;;;;;1.50;1.25;;;;;22.85;38.44;101523.50;5003079;28;45383;-51
2022/05/12 11:15:02;;;;;;;;;5.25;3.50;;;;;22.86;38.62;101528.78;5001020;28;45341;-48
2022/05/12 11:17:49;;;;;;;;;2.75;2.00;;;;;22.85;38.58;101534.22;5000850;28;46228;-46
2022/05/12 11:20:25;;;;;;;;;4.00;2.00;;;;;22.81;38.20;101525.47;5000783;28;45331;-51
2022/05/12 11:23:23;;;;;;;;;3.00;2.50;;;;;22.78;38.05;101522.09;4999940;28;45359;-50
2022/05/12 11:26:05;;;;;;;;;3.50;2.25;;;;;22.80;38.29;101517.53;5000596;28;45266;-50
2022/05/12 11:32:01;;;;;;;;;3.00;1.75;;;;;22.80;38.01;101526.44;5000866;28;45335;-46
2022/05/12 11:34:28;;;;;;;;;1.50;1.25;;;;;22.79;37.91;101523.84;5000695;28;45404;-47
2022/05/12 11:36:55;;;;;;;;;3.00;3.00;;;;;22.77;37.75;101523.94;5000589;28;45498;-45
2022/05/12 11:39:39;;;;;;;;;2.75;2.00;;;;;22.73;37.83;101531.25;4998774;28;46364;-47
2022/05/12 11:42:20;;;;;;;;;3.00;3.00;;;;;22.74;37.62;101529.44;5000494;28;45503;-47
2022/05/12 11:44:55;;;;;;;;;2.50;2.50;;;;;22.73;37.92;101530.41;5000567;28;45390;-48
2022/05/12 11:47:53;;;;;;;;;4.00;3.50;;;;;22.73;37.63;101523.22;5000764;28;45606;-47
2022/05/12 11:50:43;;;;;;;;;4.50;3.25;;;;;22.80;37.32;101517.53;5000370;28;46394;-46
2022/05/12 11:53:46;;;;;;;;;2.25;2.25;;;;;22.86;37.72;101522.56;5000417;28;45344;-49